Time;durP1;ratioP1;P1;durP2;ratioP2;P2;SDS_P1;SDS_P2;PMS_P1;PMS_P2;Temp;Humidity;BMP_temperature;BMP_pressure;BME280_temperature;BME280_humidity;BME280_pressure;Samples;Min_cycle;Max_cycle;Signal;HPM_P1;HPM_P2
2022/12/29 00:01:33;;;;;;;20.20;14.60;;;;;;;16.06;29.69;101724.42;100921;1330;69202;-85
2022/12/29 00:03:58;;;;;;;19.10;14.20;;;;;;;16.05;29.60;101728.41;101035;1330;69652;-85
2022/12/29 00:06:24;;;;;;;22.70;15.10;;;;;;;16.06;29.59;101721.47;101235;1319;69214;-85
2022/12/29 00:08:49;;;;;;;22.00;15.20;;;;;;;16.05;29.59;101716.23;101178;1319;69257;-85
2022/12/29 00:11:17;;;;;;;22.80;15.30;;;;;;;16.05;29.73;101717.19;100810;1327;69285;-85
2022/12/29 00:16:27;;;;;;;22.00;14.90;;;;;;;16.05;29.63;101726.52;100884;1330;72682;-85
2022/12/29 00:18:52;;;;;;;22.80;15.40;;;;;;;16.05;29.66;101724.92;101163;1320;69237;-85
2022/12/29 00:35:10;;;;;;;22.70;15.10;;;;;;;16.05;29.65;101745.66;100902;1327;69206;-85
2022/12/29 00:45:50;;;;;;;21.40;15.60;;;;;;;16.04;29.67;101725.35;101226;1319;69190;-85
2022/12/29 00:49:29;;;;;;;24.40;16.40;;;;;;;16.04;29.67;101728.86;100940;1317;69344;-86
2022/12/29 00:51:01;;;;;;;23.20;16.40;;;;;;;16.04;29.69;101726.69;100951;1327;74611;-86
2022/12/29 00:53:26;;;;;;;23.10;16.30;;;;;;;16.04;29.55;101721.13;100816;1329;69233;-90
2022/12/29 00:55:52;;;;;;;24.20;15.90;;;;;;;16.04;29.62;101718.71;101216;1328;69187;-85
2022/12/29 00:58:17;;;;;;;22.90;16.20;;;;;;;16.04;29.54;101721.27;100999;1327;69241;-85
2022/12/29 01:00:43;;;;;;;25.10;16.40;;;;;;;16.05;29.59;101717.42;100887;1327;69232;-85
2022/12/29 01:03:08;;;;;;;26.50;16.40;;;;;;;16.04;29.63;101713.13;100898;1320;69238;-86
2022/12/29 01:05:36;;;;;;;22.10;15.70;;;;;;;16.04;29.57;101706.27;100787;1326;69287;-85
2022/12/29 01:08:02;;;;;;;22.10;16.10;;;;;;;16.05;29.55;101712.55;100941;1327;69219;-85
2022/12/29 01:10:27;;;;;;;21.70;15.80;;;;;;;16.05;29.69;101711.60;101391;1326;69138;-85
2022/12/29 01:12:53;;;;;;;22.10;15.60;;;;;;;16.05;29.56;101716.23;100806;1322;67341;-85
2022/12/29 01:15:18;;;;;;;23.90;16.00;;;;;;;16.04;29.67;101714.02;101316;1319;69234;-85
2022/12/29 01:17:43;;;;;;;24.50;17.70;;;;;;;16.05;29.56;101712.00;101181;1326;69110;-85
2022/12/29 01:20:10;;;;;;;24.60;16.40;;;;;;;16.04;29.58;101706.51;100838;1322;69130;-85
2022/12/29 01:22:36;;;;;;;23.60;16.00;;;;;;;16.05;29.62;101706.02;100881;1327;69130;-85
2022/12/29 01:25:01;;;;;;;27.10;17.10;;;;;;;16.05;29.55;101702.67;100917;1329;69275;-85
2022/12/29 01:27:27;;;;;;;23.60;16.90;;;;;;;16.05;29.66;101706.26;100925;1329;69205;-85
2022/12/29 01:29:52;;;;;;;22.60;16.40;;;;;;;16.05;29.51;101700.98;101162;1327;69322;-85
2022/12/29 01:32:18;;;;;;;25.50;15.90;;;;;;;16.05;29.58;101695.71;100640;1327;69280;-90
2022/12/29 01:34:43;;;;;;;28.00;17.30;;;;;;;16.05;29.50;101692.30;100800;1327;69280;-85
2022/12/29 01:37:09;;;;;;;24.70;17.50;;;;;;;16.05;29.48;101691.90;101177;1319;69142;-85
2022/12/29 01:39:34;;;;;;;24.90;17.30;;;;;;;16.05;29.65;101689.41;101304;1326;90419;-85
2022/12/29 01:42:00;;;;;;;23.90;17.10;;;;;;;16.05;29.53;101683.27;100916;1322;69198;-86
2022/12/29 01:44:42;;;;;;;25.20;17.30;;;;;;;16.05;29.50;101684.23;101135;1326;69391;-86
2022/12/29 01:47:07;;;;;;;27.50;18.10;;;;;;;16.05;29.49;101685.19;101194;1319;71984;-90
2022/12/29 01:49:33;;;;;;;27.10;18.00;;;;;;;16.05;29.54;101683.36;100686;1324;69247;-85
2022/12/29 01:52:00;;;;;;;28.70;18.20;;;;;;;16.05;29.65;101679.45;100852;1327;69211;-85
2022/12/29 01:54:34;;;;;;;27.10;18.70;;;;;;;16.05;29.58;101674.58;101152;1327;69190;-85
2022/12/29 01:57:01;;;;;;;25.70;17.50;;;;;;;16.04;29.53;101663.35;101157;1326;82368;-85
2022/12/29 01:59:29;;;;;;;29.50;18.70;;;;;;;16.05;29.54;101663.26;100764;1322;72511;-86
2022/12/29 02:01:55;;;;;;;26.60;18.90;;;;;;;16.05;29.53;101660.55;100910;1330;69158;-85
2022/12/29 02:04:20;;;;;;;26.40;17.70;;;;;;;16.05;29.47;101664.61;100820;1322;69346;-85
2022/12/29 02:07:17;;;;;;;30.80;18.50;;;;;;;16.04;29.46;101660.39;100786;1330;69214;-85
2022/12/29 02:09:42;;;;;;;25.90;18.50;;;;;;;16.04;29.47;101649.63;100921;1330;82270;-85
2022/12/29 02:12:08;;;;;;;28.60;19.80;;;;;;;16.04;29.45;101642.30;100895;1320;69175;-85
2022/12/29 02:14:33;;;;;;;26.70;18.30;;;;;;;16.04;29.48;101644.91;100685;1328;69278;-86
2022/12/29 02:17:11;;;;;;;26.30;18.80;;;;;;;16.05;29.51;101643.15;100696;1329;69157;-85
2022/12/29 02:19:52;;;;;;;26.80;19.40;;;;;;;16.05;29.37;101645.06;101204;1327;75384;-85
2022/12/29 02:22:27;;;;;;;26.20;19.00;;;;;;;16.04;29.44;101646.36;101297;1326;81840;-85
2022/12/29 02:25:17;;;;;;;28.70;19.50;;;;;;;16.04;29.43;101644.92;101190;1327;73391;-85
2022/12/29 02:27:55;;;;;;;29.20;19.50;;;;;;;16.04;29.44;101646.84;101455;1327;69221;-85
2022/12/29 02:30:57;;;;;;;27.80;19.60;;;;;;;16.03;29.43;101644.22;101370;1320;69140;-85
2022/12/29 02:33:35;;;;;;;26.60;18.90;;;;;;;16.04;29.40;101649.25;101362;1319;75358;-85
2022/12/29 02:36:12;;;;;;;27.70;19.60;;;;;;;16.04;29.41;101645.71;101321;1325;82151;-85
2022/12/29 02:38:49;;;;;;;29.30;19.60;;;;;;;16.04;29.41;101645.88;101056;1325;72575;-85
2022/12/29 02:41:31;;;;;;;27.10;19.60;;;;;;;16.04;29.40;101644.93;101125;1325;69131;-86
2022/12/29 02:44:04;;;;;;;28.80;20.70;;;;;;;16.04;29.42;101643.64;100822;1326;365993;-91
2022/12/29 02:47:36;;;;;;;28.10;20.00;;;;;;;16.04;29.45;101644.76;101115;1327;75525;-85
2022/12/29 02:50:03;;;;;;;;;;;;;;;16.04;29.31;101647.73;100600;1328;81984;-91
2022/12/29 02:52:36;;;;;;;26.90;19.00;;;;;;;16.02;29.53;101646.42;101101;1334;72658;-86
2022/12/29 02:55:02;;;;;;;27.30;19.60;;;;;;;16.02;29.43;101644.73;101450;1325;69079;-86
2022/12/29 02:57:34;;;;;;;32.20;20.40;;;;;;;16.03;29.50;101646.63;101465;1327;69307;-86
2022/12/29 03:00:11;;;;;;;28.50;19.70;;;;;;;16.04;29.39;101644.63;101684;1324;74466;-85
2022/12/29 03:03:01;;;;;;;29.00;19.40;;;;;;;16.04;29.31;101646.05;101152;1320;81960;-86
2022/12/29 03:05:59;;;;;;;29.30;19.80;;;;;;;16.04;29.45;101645.25;101306;1326;72467;-86
2022/12/29 03:08:38;;;;;;;30.90;19.80;;;;;;;16.04;29.39;101651.16;101255;1327;69130;-85
2022/12/29 03:17:12;;;;;;;30.60;21.00;;;;;;;16.04;29.34;101650.90;102799;1326;82194;-88
2022/12/29 03:19:40;;;;;;;28.80;20.20;;;;;;;16.04;29.33;101654.89;102711;1321;72577;-86
2022/12/29 03:22:27;;;;;;;27.40;20.10;;;;;;;16.05;29.36;101651.35;102115;1325;69223;-85
2022/12/29 03:24:54;;;;;;;29.70;21.50;;;;;;;16.06;29.35;101648.78;101191;1327;69156;-85
2022/12/29 03:27:23;;;;;;;32.10;21.30;;;;;;;16.06;29.37;101648.28;100812;1321;74744;-86
2022/12/29 03:29:54;;;;;;;29.00;21.40;;;;;;;16.07;29.26;101650.24;100845;1329;82132;-86
2022/12/29 03:32:20;;;;;;;;;;;;;;;16.08;29.23;101654.63;100821;1328;72529;-85
2022/12/29 03:34:47;;;;;;;27.40;19.70;;;;;;;16.06;29.36;101649.59;100770;1329;69217;-90
2022/12/29 03:37:14;;;;;;;30.70;20.00;;;;;;;16.06;29.16;101650.61;100907;1328;69331;-85
2022/12/29 03:39:39;;;;;;;27.70;19.80;;;;;;;16.06;29.16;101649.09;101197;1330;69119;-85
2022/12/29 03:42:06;;;;;;;29.60;21.30;;;;;;;16.06;29.23;101644.55;100910;1327;69269;-86
2022/12/29 03:44:36;;;;;;;30.50;20.60;;;;;;;16.06;29.24;101648.29;101317;1323;69296;-86
2022/12/29 03:47:02;;;;;;;29.80;20.80;;;;;;;16.05;29.19;101646.33;100905;1327;69097;-86
2022/12/29 03:49:28;;;;;;;31.50;20.70;;;;;;;16.06;29.26;101642.17;101045;1328;67850;-85
2022/12/29 03:51:53;;;;;;;29.50;19.90;;;;;;;16.05;29.21;101640.98;100923;1329;69122;-85
2022/12/29 03:54:19;;;;;;;30.30;20.30;;;;;;;16.05;29.21;101645.69;100849;1320;69173;-85
2022/12/29 03:56:44;;;;;;;26.90;18.90;;;;;;;16.05;29.22;101651.04;100890;1330;68248;-86
2022/12/29 03:59:10;;;;;;;26.00;18.20;;;;;;;16.06;29.33;101659.23;100969;1328;69255;-85
2022/12/29 04:01:35;;;;;;;39.80;18.30;;;;;;;16.07;29.50;101657.86;100854;1330;69236;-85
2022/12/29 04:04:01;;;;;;;207.40;26.80;;;;;;;16.08;29.75;101656.06;101223;1325;69123;-85
2022/12/29 04:06:26;;;;;;;103.50;21.80;;;;;;;16.09;29.82;101654.04;100860;1319;69310;-85
2022/12/29 04:08:52;;;;;;;128.50;23.00;;;;;;;16.11;30.07;101658.14;101138;1324;69232;-85
2022/12/29 04:11:17;;;;;;;101.70;22.30;;;;;;;16.11;30.22;101659.23;100814;1321;69517;-85
2022/12/29 04:13:42;;;;;;;104.20;23.50;;;;;;;16.12;30.23;101655.30;100678;1324;69319;-90
2022/12/29 04:16:08;;;;;;;101.90;23.30;;;;;;;16.12;30.18;101653.39;100848;1327;69364;-85
2022/12/29 04:18:34;;;;;;;85.90;21.80;;;;;;;16.12;30.33;101656.98;101292;1325;69117;-85
2022/12/29 04:21:03;;;;;;;88.50;20.80;;;;;;;16.12;30.23;101652.42;100758;1321;74410;-85
2022/12/29 04:23:30;;;;;;;75.00;21.70;;;;;;;16.12;30.27;101649.00;101225;1325;69227;-85
2022/12/29 04:25:55;;;;;;;62.70;19.90;;;;;;;16.12;30.25;101646.12;100711;1330;69185;-85
2022/12/29 04:28:21;;;;;;;60.40;20.40;;;;;;;16.12;30.22;101645.73;101094;1327;69177;-85
2022/12/29 04:30:46;;;;;;;62.80;19.90;;;;;;;16.12;30.07;101648.35;100930;1330;69179;-85
2022/12/29 04:33:12;;;;;;;63.60;20.60;;;;;;;16.12;30.10;101647.14;101238;1326;69162;-85
2022/12/29 04:35:37;;;;;;;44.30;19.40;;;;;;;16.13;30.14;101643.95;100878;1330;72563;-85
2022/12/29 04:38:03;;;;;;;44.80;20.00;;;;;;;16.12;30.08;101640.86;101145;1319;69194;-85
2022/12/29 04:40:28;;;;;;;57.70;20.60;;;;;;;16.12;30.08;101640.59;100811;1325;69205;-85
2022/12/29 04:42:54;;;;;;;43.50;19.60;;;;;;;16.12;30.00;101637.66;100749;1328;69682;-85
2022/12/29 04:45:19;;;;;;;39.60;19.90;;;;;;;16.13;29.97;101635.17;100838;1318;69218;-85
2022/12/29 04:47:45;;;;;;;38.80;20.00;;;;;;;16.13;29.88;101635.34;100887;1329;69285;-85
2022/12/29 04:50:10;;;;;;;36.90;19.40;;;;;;;16.13;29.82;101631.73;100710;1327;69267;-85
2022/12/29 04:52:36;;;;;;;37.70;19.50;;;;;;;16.13;29.84;101632.29;100701;1330;69397;-86
2022/12/29 04:55:02;;;;;;;36.90;19.10;;;;;;;16.13;29.75;101635.16;100870;1326;69176;-85
2022/12/29 04:57:27;;;;;;;34.40;19.40;;;;;;;16.13;29.85;101633.81;100886;1330;69161;-85
2022/12/29 04:59:53;;;;;;;40.10;20.00;;;;;;;16.13;29.75;101632.04;100765;1330;67128;-85
2022/12/29 05:02:18;;;;;;;35.90;19.40;;;;;;;16.12;29.73;101627.84;100829;1329;69282;-85
2022/12/29 05:04:44;;;;;;;26.90;18.90;;;;;;;16.12;29.66;101627.29;100779;1330;69316;-85
2022/12/29 05:07:09;;;;;;;30.40;19.70;;;;;;;16.13;29.63;101631.42;100791;1308;69318;-85
2022/12/29 05:09:34;;;;;;;33.80;19.80;;;;;;;16.13;29.62;101637.01;100909;1326;69246;-85
2022/12/29 05:12:00;;;;;;;34.10;19.80;;;;;;;16.13;29.51;101633.66;100785;1328;69288;-85
2022/12/29 05:14:26;;;;;;;31.10;19.30;;;;;;;16.13;29.61;101634.92;101144;1326;69176;-85
2022/12/29 05:16:51;;;;;;;27.60;19.90;;;;;;;16.13;29.48;101639.48;100650;1330;69278;-86
2022/12/29 05:19:17;;;;;;;24.90;18.20;;;;;;;16.13;29.52;101637.23;100791;1329;69379;-85
2022/12/29 05:21:42;;;;;;;28.90;19.50;;;;;;;16.13;29.58;101634.98;100920;1322;69215;-85
2022/12/29 05:24:08;;;;;;;27.50;18.90;;;;;;;16.13;29.53;101631.73;100967;1327;69283;-85
2022/12/29 05:26:33;;;;;;;28.60;18.70;;;;;;;16.13;29.46;101624.77;101138;1324;69267;-85
2022/12/29 05:28:59;;;;;;;27.80;18.40;;;;;;;16.13;29.50;101619.82;100654;1331;69322;-85
2022/12/29 05:31:25;;;;;;;29.00;18.70;;;;;;;16.14;29.37;101619.63;100835;1327;74552;-90
2022/12/29 05:33:51;;;;;;;29.60;19.40;;;;;;;16.14;29.47;101620.91;100644;1326;69170;-85
2022/12/29 05:36:17;;;;;;;29.20;18.50;;;;;;;16.15;29.32;101621.52;100844;1330;69226;-85
2022/12/29 05:38:42;;;;;;;29.10;19.10;;;;;;;16.15;29.29;101622.96;100645;1330;69228;-85
2022/12/29 05:41:08;;;;;;;25.80;18.30;;;;;;;16.15;29.38;101622.33;100800;1326;69316;-85
2022/12/29 05:43:34;;;;;;;29.40;18.70;;;;;;;16.15;29.31;101620.25;100725;1327;82218;-86
2022/12/29 05:45:59;;;;;;;30.00;18.90;;;;;;;16.15;29.32;101617.86;100905;1331;69218;-85
2022/12/29 05:48:25;;;;;;;31.10;18.50;;;;;;;16.15;29.30;101616.41;100873;1333;69209;-85
2022/12/29 05:50:50;;;;;;;28.40;18.70;;;;;;;16.15;29.29;101615.13;100916;1330;69252;-85
2022/12/29 05:53:16;;;;;;;27.30;18.80;;;;;;;16.16;29.23;101621.27;100810;1336;69168;-85
2022/12/29 05:55:42;;;;;;;31.30;19.40;;;;;;;16.15;29.34;101625.58;100730;1328;69178;-86
2022/12/29 05:58:08;;;;;;;26.00;17.60;;;;;;;16.15;29.13;101624.88;100842;1328;69211;-85
2022/12/29 06:00:34;;;;;;;31.70;18.60;;;;;;;16.15;29.25;101626.95;101032;1322;69210;-85
2022/12/29 06:02:59;;;;;;;31.40;19.60;;;;;;;16.14;29.27;101628.10;100819;1323;69303;-85
2022/12/29 06:05:25;;;;;;;31.40;19.40;;;;;;;16.14;29.26;101630.58;100937;1327;69314;-85
2022/12/29 06:07:50;;;;;;;33.40;18.90;;;;;;;16.13;29.25;101636.66;100801;1334;69247;-85
2022/12/29 06:10:16;;;;;;;30.90;19.30;;;;;;;16.13;29.24;101643.70;101016;1332;69180;-90
2022/12/29 06:12:42;;;;;;;40.80;19.30;;;;;;;16.12;29.25;101649.48;100939;1328;69343;-85
2022/12/29 06:15:07;;;;;;;34.00;18.80;;;;;;;16.12;29.25;101653.13;101073;1328;69197;-85
2022/12/29 06:17:33;;;;;;;33.90;18.90;;;;;;;16.12;29.30;101659.21;100834;1331;69224;-85
2022/12/29 06:19:58;;;;;;;29.00;18.30;;;;;;;16.12;29.25;101659.06;100997;1328;69253;-86
2022/12/29 06:22:24;;;;;;;35.90;17.60;;;;;;;16.12;29.45;101657.45;100893;1327;74398;-86
2022/12/29 06:24:49;;;;;;;31.50;18.70;;;;;;;16.12;29.56;101651.92;100947;1330;69221;-85
2022/12/29 06:27:15;;;;;;;36.10;19.30;;;;;;;16.13;29.68;101651.67;101211;1332;69178;-85
2022/12/29 06:29:42;;;;;;;36.00;19.20;;;;;;;16.14;29.76;101661.46;100983;1331;69210;-85
2022/12/29 06:32:08;;;;;;;39.00;19.50;;;;;;;16.13;29.81;101658.35;101130;1325;69213;-85
2022/12/29 06:34:33;;;;;;;31.00;19.20;;;;;;;16.14;29.82;101662.02;101279;1328;69282;-86
2022/12/29 06:36:59;;;;;;;35.80;17.70;;;;;;;16.14;29.84;101668.32;100790;1323;72670;-85
2022/12/29 06:39:24;;;;;;;28.90;17.00;;;;;;;16.15;30.09;101665.97;101043;1333;69262;-85
2022/12/29 06:41:53;;;;;;;31.30;17.90;;;;;;;16.17;30.47;101667.73;100747;1324;69220;-85
2022/12/29 06:44:21;;;;;;;39.60;17.40;;;;;;;16.19;30.65;101663.85;100899;1330;74549;-86
2022/12/29 06:46:46;;;;;;;31.50;16.70;;;;;;;16.21;31.05;101663.85;100920;1329;82232;-86
2022/12/29 06:49:12;;;;;;;73.10;46.40;;;;;;;16.23;31.18;101663.56;100807;1327;69342;-90
2022/12/29 06:51:37;;;;;;;101.70;70.00;;;;;;;16.25;31.33;101665.89;100850;1329;69214;-85
2022/12/29 06:54:03;;;;;;;91.00;63.30;;;;;;;16.26;31.48;101666.16;100809;1330;69603;-85
2022/12/29 06:56:28;;;;;;;79.60;53.20;;;;;;;16.27;31.58;101665.89;101204;1333;69227;-85
2022/12/29 06:58:54;;;;;;;79.20;53.80;;;;;;;16.28;31.60;101669.47;101238;1327;69201;-85
2022/12/29 07:01:19;;;;;;;77.70;49.80;;;;;;;16.27;31.50;101669.27;100755;1328;69290;-86
2022/12/29 07:03:45;;;;;;;73.30;47.70;;;;;;;16.25;31.56;101670.53;100833;1327;69253;-85
2022/12/29 07:06:10;;;;;;;64.20;45.30;;;;;;;16.22;31.58;101674.36;100750;1327;69351;-85
2022/12/29 07:08:36;;;;;;;65.20;42.50;;;;;;;16.20;31.60;101678.98;101134;1328;72503;-86
2022/12/29 07:11:01;;;;;;;61.40;41.10;;;;;;;16.18;31.56;101681.98;101170;1328;69276;-85
2022/12/29 07:13:27;;;;;;;69.20;41.30;;;;;;;16.15;31.58;101677.79;100908;1327;69216;-86
2022/12/29 07:15:52;;;;;;;67.70;40.10;;;;;;;16.13;31.50;101678.41;100736;1322;69121;-85
2022/12/29 07:18:18;;;;;;;62.90;37.80;;;;;;;16.10;31.43;101680.41;101188;1320;69235;-85
2022/12/29 07:20:43;;;;;;;64.20;38.40;;;;;;;16.07;31.46;101686.16;100839;1327;69259;-85
2022/12/29 07:23:09;;;;;;;52.60;35.50;;;;;;;16.06;31.40;101682.38;101356;1319;69173;-86
2022/12/29 07:25:35;;;;;;;52.80;33.80;;;;;;;16.05;31.56;101682.89;101206;1326;69253;-86
2022/12/29 07:28:02;;;;;;;51.80;34.10;;;;;;;16.04;31.67;101685.52;100820;1330;69163;-90
2022/12/29 07:30:27;;;;;;;61.10;35.00;;;;;;;16.04;31.73;101687.62;100642;1328;69236;-85
2022/12/29 07:32:53;;;;;;;76.90;36.10;;;;;;;16.03;31.67;101690.35;100974;1329;69217;-85
2022/12/29 07:35:18;;;;;;;56.30;33.90;;;;;;;16.02;31.63;101687.45;100857;1318;74287;-85
2022/12/29 07:37:44;;;;;;;48.00;33.40;;;;;;;16.01;31.53;101686.91;100931;1328;69164;-85
2022/12/29 07:40:10;;;;;;;64.00;34.50;;;;;;;16.00;31.53;101683.11;100812;1336;69196;-85
2022/12/29 07:42:35;;;;;;;64.90;34.90;;;;;;;16.00;31.39;101687.27;100845;1329;69275;-85
2022/12/29 07:45:01;;;;;;;53.60;32.50;;;;;;;15.99;31.37;101685.86;101173;1327;69300;-85
2022/12/29 07:47:27;;;;;;;56.90;31.60;;;;;;;15.98;31.38;101687.16;100855;1322;83087;-85
2022/12/29 07:49:52;;;;;;;57.40;31.80;;;;;;;15.98;31.23;101683.18;100775;1327;69670;-86
2022/12/29 07:52:18;;;;;;;57.80;32.00;;;;;;;15.98;31.23;101681.75;100905;1329;69604;-86
2022/12/29 07:54:43;;;;;;;48.30;30.60;;;;;;;15.97;31.20;101683.70;100819;1331;69213;-85
2022/12/29 07:57:09;;;;;;;57.20;31.30;;;;;;;15.97;31.10;101682.98;100923;1328;69212;-86
2022/12/29 07:59:34;;;;;;;49.10;32.50;;;;;;;15.96;31.05;101682.99;101261;1330;69234;-86
2022/12/29 08:02:00;;;;;;;64.60;40.40;;;;;;;15.95;31.06;101688.67;101427;1323;69230;-86
2022/12/29 08:04:25;;;;;;;63.00;36.30;;;;;;;15.95;31.02;101685.26;101290;1327;69285;-86
2022/12/29 08:06:51;;;;;;;60.10;38.40;;;;;;;15.95;31.04;101681.69;101069;1320;69193;-90
2022/12/29 08:09:16;;;;;;;62.70;41.10;;;;;;;15.94;31.14;101679.23;101133;1323;69398;-86
2022/12/29 08:11:43;;;;;;;61.20;41.90;;;;;;;15.94;30.99;101681.00;100864;1329;69172;-86
2022/12/29 08:14:08;;;;;;;59.90;37.60;;;;;;;15.93;30.95;101679.98;101030;1312;69209;-86
2022/12/29 08:16:34;;;;;;;41.50;28.20;;;;;;;15.92;31.01;101683.27;101030;1326;69204;-86
2022/12/29 08:18:59;;;;;;;39.20;25.00;;;;;;;15.92;31.34;101679.45;100816;1321;69247;-86
2022/12/29 08:21:26;;;;;;;41.40;26.00;;;;;;;15.92;31.63;101680.06;101097;1333;69263;-86
2022/12/29 08:23:52;;;;;;;42.50;24.60;;;;;;;15.93;32.00;101681.02;101086;1326;69210;-86
2022/12/29 08:26:17;;;;;;;35.40;25.10;;;;;;;15.94;32.16;101682.27;101147;1326;69103;-86
2022/12/29 08:28:42;;;;;;;35.40;24.30;;;;;;;15.95;32.33;101681.84;100872;1329;69216;-86
2022/12/29 08:31:08;;;;;;;38.30;24.50;;;;;;;15.95;32.39;101682.55;100965;1330;69213;-86
2022/12/29 08:33:33;;;;;;;39.40;25.20;;;;;;;15.95;32.52;101680.64;100780;1324;69162;-86
2022/12/29 08:36:03;;;;;;;37.90;24.40;;;;;;;15.96;32.61;101684.27;100917;1327;69162;-86
2022/12/29 08:38:29;;;;;;;37.80;24.50;;;;;;;15.96;32.54;101686.81;101022;1329;82000;-86
2022/12/29 08:40:55;;;;;;;41.10;24.80;;;;;;;15.96;32.53;101683.38;101100;1328;69394;-86
2022/12/29 08:43:21;;;;;;;40.30;24.90;;;;;;;15.97;32.62;101681.77;101152;1327;69555;-86
2022/12/29 08:45:46;;;;;;;41.90;24.30;;;;;;;15.97;32.70;101679.45;101009;1327;69245;-91
2022/12/29 08:48:12;;;;;;;37.20;22.70;;;;;;;15.97;32.79;101676.44;100881;1322;69189;-86
2022/12/29 08:50:37;;;;;;;41.40;23.40;;;;;;;15.98;32.88;101673.52;101318;1328;69191;-86
2022/12/29 08:53:03;;;;;;;43.70;23.00;;;;;;;15.98;32.99;101671.55;100944;1330;70072;-86
2022/12/29 08:55:28;;;;;;;38.20;23.20;;;;;;;15.98;32.90;101670.58;101081;1323;69215;-86
2022/12/29 08:57:54;;;;;;;43.50;23.80;;;;;;;15.97;32.99;101674.73;101165;1327;69197;-86
2022/12/29 09:00:20;;;;;;;41.60;22.50;;;;;;;15.97;33.06;101670.77;100831;1329;69270;-86
2022/12/29 09:02:46;;;;;;;41.00;23.10;;;;;;;15.96;33.12;101667.36;101320;1326;69217;-85
2022/12/29 09:05:11;;;;;;;39.80;23.50;;;;;;;15.95;32.98;101657.48;100980;1329;69228;-86
2022/12/29 09:07:37;;;;;;;45.80;28.20;;;;;;;15.95;32.93;101650.25;101209;1324;69193;-86
2022/12/29 09:10:03;;;;;;;48.60;28.30;;;;;;;15.93;32.90;101642.55;101569;1325;69161;-86
2022/12/29 09:12:28;;;;;;;57.20;32.70;;;;;;;15.93;32.86;101639.94;101343;1324;69173;-86
2022/12/29 09:14:54;;;;;;;53.60;33.70;;;;;;;15.92;32.83;101632.86;101192;1324;69127;-86
2022/12/29 09:20:04;;;;;;;56.50;34.90;;;;;;;15.91;32.74;101639.75;101157;1327;81974;-86
2022/12/29 09:22:29;;;;;;;57.70;35.10;;;;;;;15.90;32.66;101634.11;101007;1327;69661;-86
2022/12/29 09:24:55;;;;;;;56.90;33.90;;;;;;;15.90;32.61;101631.32;101272;1323;69201;-86
2022/12/29 09:27:20;;;;;;;118.30;86.70;;;;;;;15.90;32.66;101630.85;100858;1327;69903;-86
2022/12/29 09:29:46;;;;;;;129.00;96.80;;;;;;;15.91;32.85;101630.89;101473;1327;69161;-86
2022/12/29 09:32:11;;;;;;;130.70;96.20;;;;;;;15.94;33.08;101626.64;101172;1328;69174;-86
2022/12/29 09:34:37;;;;;;;69.20;47.10;;;;;;;15.96;33.22;101627.71;101098;1327;69247;-86
2022/12/29 09:37:02;;;;;;;72.50;48.00;;;;;;;15.97;33.06;101622.98;101058;1319;69126;-86
2022/12/29 09:39:28;;;;;;;77.10;51.70;;;;;;;15.97;33.04;101622.33;101106;1327;67765;-90
2022/12/29 09:42:04;;;;;;;83.30;57.30;;;;;;;15.98;32.99;101620.33;100981;1327;72707;-86
2022/12/29 09:45:08;;;;;;;73.00;50.70;;;;;;;15.97;32.91;101617.31;101263;1329;69184;-86
2022/12/29 09:47:33;;;;;;;70.60;50.20;;;;;;;15.97;32.93;101606.79;101588;1320;69263;-86
2022/12/29 09:50:29;;;;;;;76.30;51.60;;;;;;;15.97;32.84;101609.03;101114;1330;69185;-86
2022/12/29 09:53:26;;;;;;;69.60;46.50;;;;;;;15.96;32.80;101604.89;101443;1326;82329;-86
2022/12/29 09:55:53;;;;;;;65.00;43.30;;;;;;;15.96;32.76;101606.90;101503;1326;73526;-86
2022/12/29 09:58:37;;;;;;;65.40;42.90;;;;;;;15.95;32.69;101605.71;101422;1319;69022;-86
2022/12/29 10:01:06;;;;;;;59.40;36.80;;;;;;;15.96;32.66;101602.84;101560;1319;69054;-86
2022/12/29 10:03:41;;;;;;;58.00;37.90;;;;;;;15.95;32.68;101598.61;101298;1318;74662;-91
2022/12/29 10:06:12;;;;;;;58.60;39.10;;;;;;;15.96;32.64;101598.99;101209;1328;82187;-86
2022/12/29 10:08:41;;;;;;;61.90;41.30;;;;;;;15.97;32.56;101597.54;101208;1321;72351;-86
2022/12/29 10:11:40;;;;;;;55.90;37.70;;;;;;;15.97;32.46;101595.88;101400;1327;69222;-86
2022/12/29 10:14:43;;;;;;;62.10;36.10;;;;;;;15.96;32.33;101591.33;101413;1326;69057;-86
2022/12/29 10:17:26;;;;;;;52.70;35.20;;;;;;;15.97;32.33;101585.66;101476;1319;74463;-86
2022/12/29 10:19:54;;;;;;;51.30;33.30;;;;;;;15.96;32.19;101585.75;101469;1326;82262;-86
2022/12/29 10:22:42;;;;;;;50.20;32.50;;;;;;;15.97;32.18;101582.55;101528;1326;72558;-86
2022/12/29 10:25:17;;;;;;;50.30;29.20;;;;;;;15.98;32.11;101576.20;101527;1328;69135;-86
2022/12/29 10:27:43;;;;;;;51.40;27.80;;;;;;;15.99;32.00;101578.41;101339;1322;69110;-87
2022/12/29 10:30:12;;;;;;;41.00;25.60;;;;;;;16.00;31.94;101577.64;101057;1327;69181;-86
2022/12/29 10:32:39;;;;;;;36.60;23.40;;;;;;;16.02;31.73;101577.00;101241;1322;83092;-86
2022/12/29 10:35:14;;;;;;;36.30;21.20;;;;;;;16.04;31.63;101576.16;101241;1326;72676;-86
2022/12/29 10:37:55;;;;;;;35.00;20.00;;;;;;;16.07;31.50;101578.55;101294;1329;67671;-86
2022/12/29 10:40:30;;;;;;;;;;;;;;;16.10;31.59;101575.20;102016;1329;69222;-86
2022/12/29 10:42:57;;;;;;;45.10;29.50;;;;;;;16.10;31.49;101569.73;101559;1327;74567;-86
2022/12/29 10:45:24;;;;;;;32.50;21.50;;;;;;;16.15;31.56;101574.45;101194;1322;82154;-91
2022/12/29 10:48:09;;;;;;;31.20;20.70;;;;;;;16.19;31.43;101569.54;101142;1322;72496;-86
2022/12/29 10:50:34;;;;;;;26.90;18.90;;;;;;;16.23;31.32;101565.08;101218;1322;69161;-86
2022/12/29 10:53:02;;;;;;;26.40;17.90;;;;;;;16.28;31.19;101565.65;101631;1321;69253;-86
2022/12/29 10:55:35;;;;;;;27.10;17.30;;;;;;;16.32;31.15;101565.98;101261;1329;69225;-86
2022/12/29 10:58:04;;;;;;;24.60;16.30;;;;;;;16.37;31.05;101560.67;101315;1329;83078;-86
2022/12/29 11:00:30;;;;;;;25.50;16.80;;;;;;;16.43;31.01;101554.03;101283;1327;72792;-87
2022/12/29 11:03:30;;;;;;;25.30;17.20;;;;;;;16.48;31.00;101557.91;101193;1328;69277;-85
2022/12/29 11:06:00;;;;;;;26.20;17.10;;;;;;;16.55;30.89;101558.89;101501;1326;69168;-86
2022/12/29 11:08:28;;;;;;;26.10;16.60;;;;;;;16.60;30.89;101555.93;101652;1327;74392;-86
2022/12/29 11:11:09;;;;;;;26.60;16.10;;;;;;;16.65;30.71;101551.98;101699;1326;82210;-86
2022/12/29 11:13:55;;;;;;;45.50;29.10;;;;;;;16.71;30.79;101550.91;101712;1330;72821;-86
2022/12/29 11:16:34;;;;;;;41.60;27.40;;;;;;;16.75;30.77;101558.14;101087;1322;69625;-86
2022/12/29 11:18:59;;;;;;;37.10;24.80;;;;;;;16.81;30.72;101551.80;101461;1327;69108;-86
2022/12/29 11:21:39;;;;;;;36.50;24.10;;;;;;;16.87;30.65;101549.68;100952;1322;69651;-87
2022/12/29 11:24:22;;;;;;;36.40;24.00;;;;;;;16.92;30.68;101548.39;101400;1326;83390;-91
2022/12/29 11:26:49;;;;;;;33.10;22.20;;;;;;;16.95;30.58;101547.48;101442;1320;72321;-86
2022/12/29 11:29:21;;;;;;;31.20;20.90;;;;;;;17.01;30.52;101544.73;101524;1326;69064;-86
2022/12/29 11:31:48;;;;;;;33.20;21.30;;;;;;;17.05;30.46;101545.67;101582;1326;69115;-86
2022/12/29 11:34:33;;;;;;;33.90;21.00;;;;;;;17.10;30.47;101542.95;101564;1314;75740;-87
2022/12/29 11:37:09;;;;;;;30.60;21.20;;;;;;;17.13;30.43;101536.67;101516;1326;82658;-87
2022/12/29 11:40:03;;;;;;;30.90;20.20;;;;;;;17.18;30.38;101537.21;101354;1327;72440;-87
2022/12/29 11:43:02;;;;;;;29.90;20.20;;;;;;;17.22;30.30;101534.50;101519;1327;69077;-87
2022/12/29 11:45:33;;;;;;;28.70;18.50;;;;;;;17.25;30.23;101535.58;101563;1303;69079;-87